createdAt,value
2018-12-13T00:00:14.211Z,19.10
2018-12-13T00:02:43.325Z,17.93
2018-12-13T00:05:12.417Z,19.83
2018-12-13T00:07:41.543Z,20.20
2018-12-13T00:10:10.645Z,21.20
2018-12-13T00:12:39.743Z,21.93
2018-12-13T00:15:08.824Z,29.30
2018-12-13T00:17:37.941Z,37.30
2018-12-13T00:20:07.163Z,36.57
2018-12-13T00:22:36.279Z,18.13
2018-12-13T00:25:05.338Z,18.93
2018-12-13T00:27:34.414Z,23.70
2018-12-13T00:30:03.521Z,46.67
2018-12-13T00:32:32.608Z,31.23
2018-12-13T00:35:01.695Z,22.47
2018-12-13T00:37:30.800Z,23.63
2018-12-13T00:39:59.905Z,13.27
2018-12-13T00:42:29.000Z,18.20
2018-12-13T00:44:58.086Z,14.17
2018-12-13T00:47:27.198Z,16.63
2018-12-13T00:49:56.292Z,18.57
2018-12-13T00:52:25.388Z,19.50
2018-12-13T00:54:54.484Z,25.90
2018-12-13T00:57:23.563Z,19.50
2018-12-13T00:59:52.665Z,13.10
2018-12-13T01:02:21.762Z,14.80
2018-12-13T01:04:50.843Z,12.50
2018-12-13T01:07:19.948Z,14.00
2018-12-13T01:09:49.063Z,9.73
2018-12-13T01:12:18.180Z,15.97
2018-12-13T01:14:47.277Z,11.33
2018-12-13T01:17:16.377Z,10.70
2018-12-13T01:19:45.474Z,11.80
2018-12-13T01:22:14.566Z,12.50
2018-12-13T01:24:43.654Z,10.67
2018-12-13T01:27:12.751Z,14.80
2018-12-13T01:29:41.848Z,13.33
2018-12-13T01:32:10.928Z,12.67
2018-12-13T01:34:40.043Z,17.23
2018-12-13T01:37:09.146Z,12.43
2018-12-13T01:39:38.304Z,13.40
2018-12-13T01:42:07.447Z,10.20
2018-12-13T01:44:36.533Z,14.03
2018-12-13T01:47:05.680Z,14.47
2018-12-13T01:49:34.759Z,11.80
2018-12-13T01:52:03.865Z,24.57
2018-12-13T01:54:32.972Z,22.13
2018-12-13T01:57:02.076Z,12.37
2018-12-13T01:59:31.160Z,15.87
2018-12-13T02:02:00.252Z,9.83
2018-12-13T02:04:29.347Z,15.47
2018-12-13T02:06:58.897Z,17.83
2018-12-13T02:09:28.088Z,18.17
2018-12-13T02:11:57.218Z,22.70
2018-12-13T02:14:26.321Z,15.53
2018-12-13T02:16:55.437Z,14.20
2018-12-13T02:19:24.534Z,12.23
2018-12-13T02:21:53.655Z,14.80
2018-12-13T02:24:22.768Z,14.40
2018-12-13T02:26:51.868Z,10.43
2018-12-13T02:29:20.933Z,12.13
2018-12-13T02:31:50.020Z,20.13
2018-12-13T02:34:19.090Z,17.13
2018-12-13T02:36:48.200Z,16.03
2018-12-13T02:39:17.306Z,17.27
2018-12-13T02:41:46.427Z,11.27
2018-12-13T02:44:15.514Z,13.20
2018-12-13T02:46:44.597Z,13.47
2018-12-13T02:49:13.705Z,15.00
2018-12-13T02:51:42.829Z,13.80
2018-12-13T02:54:11.917Z,12.70
2018-12-13T02:56:41.030Z,16.10
2018-12-13T02:59:10.089Z,12.37
2018-12-13T03:01:39.259Z,16.17
2018-12-13T03:04:08.345Z,16.87
2018-12-13T03:06:37.464Z,8.90
2018-12-13T03:09:08.198Z,11.63
2018-12-13T03:11:37.277Z,10.20
2018-12-13T03:14:06.369Z,14.93
2018-12-13T03:16:35.487Z,14.50
2018-12-13T03:19:04.582Z,11.50
2018-12-13T03:21:33.672Z,16.20
2018-12-13T03:24:02.776Z,10.83
2018-12-13T03:26:31.859Z,12.60
2018-12-13T03:29:01.020Z,13.30
2018-12-13T03:31:30.213Z,10.83
2018-12-13T03:33:59.328Z,17.27
2018-12-13T03:36:28.430Z,22.10
2018-12-13T03:38:57.561Z,7.83
2018-12-13T03:41:26.685Z,16.03
2018-12-13T03:43:55.784Z,15.13
2018-12-13T03:46:24.879Z,9.97
2018-12-13T03:48:53.996Z,12.33
2018-12-13T03:51:23.114Z,34.77
2018-12-13T03:53:52.324Z,12.30
2018-12-13T03:56:21.532Z,11.50
2018-12-13T03:58:50.632Z,15.03
2018-12-13T04:01:19.712Z,26.27
2018-12-13T04:03:48.798Z,13.53
2018-12-13T04:06:18.048Z,18.97
2018-12-13T04:08:47.264Z,21.63
2018-12-13T04:11:16.339Z,14.60
2018-12-13T04:13:45.487Z,15.43
2018-12-13T04:16:14.675Z,12.50
2018-12-13T04:18:43.761Z,25.03
2018-12-13T04:21:12.864Z,12.13
2018-12-13T04:23:41.969Z,25.27
2018-12-13T04:26:11.016Z,9.80
2018-12-13T04:28:40.113Z,23.73
2018-12-13T04:31:09.215Z,11.50
2018-12-13T04:33:38.381Z,19.27
2018-12-13T04:36:07.511Z,13.10
2018-12-13T04:38:36.601Z,16.77
2018-12-13T04:41:05.693Z,27.73
2018-12-13T04:43:34.808Z,46.07
2018-12-13T04:46:03.950Z,22.77
2018-12-13T04:48:33.035Z,34.13
2018-12-13T04:51:02.133Z,33.03
2018-12-13T04:53:31.356Z,46.53
2018-12-13T04:56:00.433Z,42.07
2018-12-13T04:58:29.536Z,48.40
2018-12-13T05:00:58.633Z,79.07
2018-12-13T05:03:27.731Z,60.60
2018-12-13T05:05:56.825Z,49.43
2018-12-13T05:08:25.922Z,93.03
2018-12-13T05:10:55.660Z,48.57
2018-12-13T05:13:24.775Z,59.63
2018-12-13T05:15:53.846Z,53.10
2018-12-13T05:18:22.937Z,60.20
2018-12-13T05:20:52.016Z,45.83
2018-12-13T05:23:21.125Z,37.40
2018-12-13T05:25:50.245Z,45.43
2018-12-13T05:28:19.358Z,42.57
2018-12-13T05:30:48.451Z,40.57
2018-12-13T05:33:17.559Z,60.80
2018-12-13T05:35:46.673Z,44.83
2018-12-13T05:38:15.840Z,44.07
2018-12-13T05:40:44.994Z,52.47
2018-12-13T05:43:14.120Z,36.80
2018-12-13T05:45:43.256Z,35.20
2018-12-13T05:48:12.369Z,31.30
2018-12-13T05:50:41.495Z,41.47
2018-12-13T05:53:10.618Z,33.37
2018-12-13T05:55:39.721Z,26.40
2018-12-13T05:58:08.817Z,29.30
2018-12-13T06:00:37.997Z,29.80
2018-12-13T06:03:07.117Z,25.50
2018-12-13T06:05:36.206Z,27.03
2018-12-13T06:08:05.305Z,24.90
2018-12-13T06:10:34.410Z,26.23
2018-12-13T06:13:03.509Z,36.47
2018-12-13T06:15:32.609Z,34.07
2018-12-13T06:18:06.830Z,22.07
2018-12-13T06:20:32.812Z,33.03
2018-12-13T06:23:01.919Z,14.63
2018-12-13T06:25:31.016Z,24.07
2018-12-13T06:28:00.110Z,26.30
2018-12-13T06:30:29.192Z,26.43
2018-12-13T06:32:58.294Z,25.33
2018-12-13T06:35:27.365Z,19.00
2018-12-13T06:38:01.275Z,26.20
2018-12-13T06:40:27.568Z,28.87
2018-12-13T06:42:56.699Z,35.73
2018-12-13T06:45:25.787Z,21.33
2018-12-13T06:47:54.902Z,26.63
2018-12-13T06:50:24.021Z,26.20
2018-12-13T06:52:53.110Z,20.50
2018-12-13T06:55:22.198Z,28.47
2018-12-13T06:57:51.317Z,23.53
2018-12-13T07:00:20.402Z,27.10
2018-12-13T07:02:49.512Z,34.27
2018-12-13T07:05:18.613Z,20.33
2018-12-13T07:07:47.715Z,23.53
2018-12-13T07:10:16.857Z,20.63
2018-12-13T07:12:45.936Z,36.23
2018-12-13T07:15:15.058Z,15.90
2018-12-13T07:17:44.146Z,29.23
2018-12-13T07:20:13.278Z,25.37
2018-12-13T07:22:42.386Z,25.13
2018-12-13T07:25:11.504Z,25.23
2018-12-13T07:27:40.594Z,184.70
2018-12-13T07:30:10.157Z,34.67
2018-12-13T07:32:39.269Z,38.03
2018-12-13T07:35:08.356Z,35.47
2018-12-13T07:37:37.466Z,23.10
2018-12-13T07:40:07.804Z,26.33
2018-12-13T07:42:36.931Z,22.23
2018-12-13T07:45:06.124Z,18.70
2018-12-13T07:47:35.253Z,29.00
2018-12-13T07:50:04.404Z,20.63
2018-12-13T07:52:33.516Z,26.73
2018-12-13T07:55:02.589Z,20.67
2018-12-13T07:57:31.710Z,25.37
2018-12-13T08:00:00.877Z,17.90
2018-12-13T08:02:29.963Z,24.03
2018-12-13T08:04:59.090Z,19.53
2018-12-13T08:07:28.200Z,22.40
2018-12-13T08:09:57.305Z,23.97
2018-12-13T08:12:26.475Z,14.40
2018-12-13T08:14:55.582Z,23.93
2018-12-13T08:17:24.820Z,17.07
2018-12-13T08:19:53.941Z,121.67
2018-12-13T08:22:23.007Z,52.33
2018-12-13T08:24:52.102Z,32.40
2018-12-13T08:27:21.210Z,40.10
2018-12-13T08:29:50.285Z,26.37
2018-12-13T08:32:19.341Z,13.10
2018-12-13T08:34:48.530Z,30.13
2018-12-13T08:37:17.625Z,23.40
2018-12-13T08:39:46.698Z,16.57
2018-12-13T08:42:15.791Z,11.70
2018-12-13T08:44:44.873Z,19.67
2018-12-13T08:47:13.962Z,14.00
2018-12-13T08:49:43.050Z,17.00
2018-12-13T08:52:12.162Z,27.40
2018-12-13T08:55:12.138Z,34.43
2018-12-13T08:57:41.206Z,38.97
2018-12-13T09:00:10.276Z,41.93
2018-12-13T09:02:39.341Z,40.97
2018-12-13T09:05:08.459Z,15.60
2018-12-13T09:07:37.521Z,21.83
2018-12-13T09:10:07.403Z,37.27
2018-12-13T09:12:36.472Z,31.77
2018-12-13T09:15:05.686Z,13.50
2018-12-13T09:17:34.746Z,21.80
2018-12-13T09:20:03.824Z,34.10
2018-12-13T09:22:32.891Z,26.83
2018-12-13T09:25:01.969Z,26.93
2018-12-13T09:27:31.032Z,14.33
2018-12-13T09:30:00.104Z,25.43
2018-12-13T09:32:29.157Z,46.50
2018-12-13T09:34:58.221Z,13.03
2018-12-13T09:37:27.298Z,25.23
2018-12-13T09:39:56.368Z,31.93
2018-12-13T09:42:25.440Z,15.37
2018-12-13T09:44:54.512Z,19.10
2018-12-13T09:47:23.590Z,26.10
2018-12-13T09:49:52.662Z,30.23
2018-12-13T09:52:21.742Z,18.83
2018-12-13T09:54:50.797Z,13.90
2018-12-13T09:57:19.878Z,11.90
2018-12-13T09:59:48.964Z,37.33
2018-12-13T10:02:18.946Z,28.63
2018-12-13T10:04:48.021Z,35.70
2018-12-13T10:07:17.091Z,26.47
2018-12-13T10:09:46.178Z,28.43
2018-12-13T10:12:15.254Z,30.13
2018-12-13T10:14:44.334Z,33.17
2018-12-13T10:17:14.880Z,26.07
2018-12-13T10:19:44.218Z,38.53
2018-12-13T10:22:13.278Z,39.67
2018-12-13T10:24:42.348Z,31.00
2018-12-13T10:27:11.420Z,25.60
2018-12-13T10:29:40.502Z,15.80
2018-12-13T10:32:09.595Z,22.10
2018-12-13T10:34:38.668Z,43.87
2018-12-13T10:37:07.792Z,54.17
2018-12-13T10:39:36.886Z,22.20
2018-12-13T10:42:05.954Z,23.03
2018-12-13T10:44:35.497Z,50.43
2018-12-13T10:47:06.129Z,18.00
2018-12-13T10:49:35.190Z,25.53
2018-12-13T10:52:04.271Z,35.10
2018-12-13T10:54:33.369Z,24.60
2018-12-13T10:57:02.453Z,18.67
2018-12-13T10:59:31.521Z,36.37
2018-12-13T11:02:05.017Z,30.97
2018-12-13T11:04:34.083Z,30.87
2018-12-13T11:07:03.165Z,19.63
2018-12-13T11:09:32.272Z,8.87
2018-12-13T11:12:01.334Z,10.20
2018-12-13T11:14:30.444Z,9.63
2018-12-13T11:16:59.536Z,12.20
2018-12-13T11:19:28.620Z,45.33
2018-12-13T11:21:57.722Z,19.37
2018-12-13T11:24:26.797Z,15.67
2018-12-13T11:26:57.078Z,15.07
2018-12-13T11:29:36.941Z,37.87
2018-12-13T11:32:06.028Z,20.13
2018-12-13T11:34:35.088Z,10.37
2018-12-13T11:37:04.177Z,13.00
2018-12-13T11:39:33.250Z,14.50
2018-12-13T11:42:02.329Z,16.10
2018-12-13T11:44:31.404Z,47.23
2018-12-13T11:47:00.468Z,41.27
2018-12-13T11:49:29.607Z,10.47
2018-12-13T11:51:58.702Z,16.80
2018-12-13T11:54:48.293Z,13.80
2018-12-13T11:57:17.361Z,18.40
2018-12-13T11:59:46.433Z,14.23
2018-12-13T12:02:15.495Z,44.67
2018-12-13T12:04:44.547Z,17.10
2018-12-13T12:07:13.626Z,37.60
2018-12-13T12:09:42.685Z,22.97
2018-12-13T12:12:11.825Z,40.87
2018-12-13T12:14:40.877Z,21.13
2018-12-13T12:17:10.028Z,21.57
2018-12-13T12:19:39.105Z,36.87
2018-12-13T12:22:08.211Z,26.13
2018-12-13T12:24:37.275Z,18.33
2018-12-13T12:27:06.392Z,21.60
2018-12-13T12:29:35.478Z,30.23
2018-12-13T12:32:04.623Z,28.80
2018-12-13T12:34:33.697Z,22.53
2018-12-13T12:37:02.795Z,25.67
2018-12-13T12:39:31.873Z,19.10
2018-12-13T12:42:02.052Z,19.80
2018-12-13T12:44:35.154Z,20.47
2018-12-13T12:47:04.225Z,11.70
2018-12-13T12:49:33.309Z,15.87
2018-12-13T12:52:02.381Z,23.60
2018-12-13T12:54:31.477Z,17.10
2018-12-13T12:57:00.544Z,12.17
2018-12-13T12:59:29.711Z,14.53
2018-12-13T13:01:58.796Z,18.70
2018-12-13T13:04:27.874Z,38.17
2018-12-13T13:06:56.969Z,11.90
2018-12-13T13:09:26.064Z,14.07
2018-12-13T13:11:55.174Z,17.73
2018-12-13T13:14:24.247Z,36.27
2018-12-13T13:16:53.586Z,40.27
2018-12-13T13:19:22.677Z,14.07
2018-12-13T13:21:51.800Z,32.43
2018-12-13T13:24:20.897Z,30.67
2018-12-13T13:26:50.033Z,29.70
2018-12-13T13:29:19.121Z,15.13
2018-12-13T13:31:48.207Z,19.90
2018-12-13T13:34:17.298Z,20.23
2018-12-13T13:36:46.409Z,35.03
2018-12-13T13:39:15.614Z,24.57
2018-12-13T13:41:44.717Z,18.00
2018-12-13T13:44:14.105Z,13.67
2018-12-13T13:46:43.245Z,15.43
2018-12-13T13:49:12.327Z,44.67
2018-12-13T13:51:41.487Z,25.13
2018-12-13T13:54:10.665Z,20.30
2018-12-13T13:56:45.830Z,30.13
2018-12-13T13:59:14.921Z,21.90
2018-12-13T14:01:44.007Z,22.60
2018-12-13T14:04:13.096Z,45.97
2018-12-13T14:06:42.212Z,52.03
2018-12-13T14:09:11.339Z,69.27
2018-12-13T14:11:40.516Z,107.83
2018-12-13T14:14:09.641Z,85.37
2018-12-13T14:16:38.750Z,62.03
2018-12-13T14:19:07.965Z,82.90
2018-12-13T14:21:37.077Z,65.20
2018-12-13T14:24:06.169Z,92.17
2018-12-13T14:26:35.268Z,105.30
2018-12-13T14:29:04.368Z,112.47
2018-12-13T14:31:34.631Z,119.13
2018-12-13T14:34:04.003Z,208.93
2018-12-13T14:36:33.102Z,172.93
2018-12-13T14:39:02.185Z,215.93
2018-12-13T14:41:31.575Z,152.00
2018-12-13T14:44:00.653Z,118.23
2018-12-13T14:46:29.784Z,69.43
2018-12-13T14:48:58.853Z,59.67
2018-12-13T14:51:27.946Z,72.30
2018-12-13T14:53:57.044Z,102.00
2018-12-13T14:56:26.122Z,113.77
2018-12-13T14:58:55.180Z,100.03
2018-12-13T15:01:24.258Z,97.03
2018-12-13T15:03:53.348Z,87.70
2018-12-13T15:06:22.461Z,70.97
2018-12-13T15:08:51.569Z,61.07
2018-12-13T15:11:20.669Z,74.00
2018-12-13T15:13:49.823Z,69.37
2018-12-13T15:16:18.930Z,75.63
2018-12-13T15:18:48.024Z,166.83
2018-12-13T15:21:17.104Z,170.57
2018-12-13T15:23:46.185Z,130.03
2018-12-13T15:26:15.256Z,158.83
2018-12-13T15:28:44.393Z,126.93
2018-12-13T15:31:13.624Z,176.73
2018-12-13T15:33:42.721Z,142.33
2018-12-13T15:36:11.800Z,170.63
2018-12-13T15:38:40.891Z,174.40
2018-12-13T15:41:09.976Z,218.80
2018-12-13T15:43:39.061Z,199.87
2018-12-13T15:46:08.142Z,192.73
2018-12-13T15:48:37.269Z,168.77
2018-12-13T15:51:06.357Z,161.70
2018-12-13T15:53:35.431Z,158.43
2018-12-13T15:56:04.523Z,183.67
2018-12-13T15:58:33.644Z,137.17
2018-12-13T16:01:03.839Z,110.80
2018-12-13T16:03:32.912Z,105.20
2018-12-13T16:06:02.097Z,118.63
2018-12-13T16:08:31.180Z,130.47
2018-12-13T16:11:00.568Z,127.60
2018-12-13T16:13:29.655Z,141.07
2018-12-13T16:15:58.771Z,172.30
2018-12-13T16:18:27.895Z,159.97
2018-12-13T16:20:56.977Z,132.03
2018-12-13T16:23:26.285Z,118.87
2018-12-13T16:25:55.357Z,103.73
2018-12-13T16:28:24.464Z,117.03
2018-12-13T16:30:53.588Z,133.00
2018-12-13T16:33:22.672Z,113.37
2018-12-13T16:35:51.796Z,114.47
2018-12-13T16:38:20.984Z,130.37
2018-12-13T16:40:50.141Z,140.60
2018-12-13T16:43:19.244Z,154.70
2018-12-13T16:45:48.338Z,129.13
2018-12-13T16:48:17.489Z,126.27
2018-12-13T16:50:46.614Z,109.23
2018-12-13T16:53:15.766Z,136.70
2018-12-13T16:55:44.873Z,147.67
2018-12-13T16:58:14.235Z,137.30
2018-12-13T17:00:43.344Z,153.97
2018-12-13T17:03:23.141Z,163.43
2018-12-13T17:05:52.245Z,140.93
2018-12-13T17:08:21.365Z,148.17
2018-12-13T17:10:50.449Z,139.07
2018-12-13T17:13:19.672Z,139.57
2018-12-13T17:15:48.806Z,160.73
2018-12-13T17:18:17.993Z,163.07
2018-12-13T17:20:48.099Z,196.67
2018-12-13T17:23:17.214Z,309.50
2018-12-13T17:25:46.317Z,303.60
2018-12-13T17:28:15.466Z,211.27
2018-12-13T17:30:44.594Z,204.53
2018-12-13T17:33:13.838Z,249.53
2018-12-13T17:35:43.354Z,179.70
2018-12-13T17:38:13.305Z,188.30
2018-12-13T17:40:42.934Z,137.73
2018-12-13T17:43:12.035Z,136.77
2018-12-13T17:45:41.161Z,141.83
2018-12-13T17:48:11.228Z,140.73
2018-12-13T17:50:40.326Z,143.90
2018-12-13T17:53:09.433Z,139.37
2018-12-13T17:55:39.238Z,130.63
2018-12-13T17:58:08.636Z,102.07
2018-12-13T18:00:37.744Z,117.43
2018-12-13T18:03:07.772Z,112.70
2018-12-13T18:05:37.782Z,101.93
2018-12-13T18:08:08.071Z,111.23
2018-12-13T18:10:37.218Z,123.47
2018-12-13T18:13:06.525Z,120.60
2018-12-13T18:15:36.470Z,141.33
2018-12-13T18:18:06.241Z,127.50
2018-12-13T18:20:35.368Z,108.90
2018-12-13T18:23:04.481Z,102.00
2018-12-13T18:25:33.608Z,258.53
2018-12-13T18:28:02.712Z,119.30
2018-12-13T18:30:31.839Z,94.67
2018-12-13T18:33:00.987Z,113.13
2018-12-13T18:35:31.087Z,99.10
2018-12-13T18:38:00.229Z,100.40
2018-12-13T18:40:35.497Z,143.97
2018-12-13T18:43:00.862Z,160.23
2018-12-13T18:45:34.509Z,197.63
2018-12-13T18:48:04.158Z,170.17
2018-12-13T18:50:33.289Z,157.77
2018-12-13T18:53:03.085Z,157.13
2018-12-13T18:55:32.870Z,126.90
2018-12-13T18:58:02.008Z,141.03
2018-12-13T19:00:31.662Z,160.63
2018-12-13T19:03:01.012Z,190.40
2018-12-13T19:05:30.278Z,221.23
2018-12-13T19:07:59.386Z,234.30
2018-12-13T19:10:28.615Z,239.63
2018-12-13T19:12:57.729Z,235.97
2018-12-13T19:15:26.879Z,232.93
2018-12-13T19:17:57.413Z,173.40
2018-12-13T19:20:28.042Z,182.93
2018-12-13T19:22:57.256Z,161.57
2018-12-13T19:25:27.807Z,174.30
2018-12-13T19:27:57.168Z,138.17
2018-12-13T19:30:26.585Z,150.07
2018-12-13T19:32:55.706Z,150.40
2018-12-13T19:35:25.306Z,132.30
2018-12-13T19:37:54.441Z,119.00
2018-12-13T19:40:24.690Z,102.97
2018-12-13T19:42:55.294Z,95.37
2018-12-13T19:45:24.489Z,89.57
2018-12-13T19:47:53.664Z,83.70
2018-12-13T19:50:23.395Z,137.50
2018-12-13T19:52:52.509Z,110.00
2018-12-13T19:55:21.611Z,85.93
2018-12-13T19:57:50.746Z,101.17
2018-12-13T20:00:20.752Z,111.93
2018-12-13T20:02:50.126Z,96.10
2018-12-13T20:05:19.257Z,120.60
2018-12-13T20:07:48.409Z,104.10
2018-12-13T20:10:17.912Z,94.47
2018-12-13T20:12:48.114Z,98.80
2018-12-13T20:15:23.959Z,91.20
2018-12-13T20:17:49.372Z,99.60
2018-12-13T20:20:19.239Z,101.40
2018-12-13T20:22:48.337Z,144.57
2018-12-13T20:25:17.896Z,160.37
2018-12-13T20:27:47.048Z,175.33
2018-12-13T20:30:16.356Z,147.13
2018-12-13T20:32:46.796Z,131.23
2018-12-13T20:35:16.192Z,116.57
2018-12-13T20:37:46.200Z,88.63
2018-12-13T20:40:15.958Z,101.40
2018-12-13T20:42:45.496Z,87.03
2018-12-13T20:45:14.663Z,104.33
2018-12-13T20:47:44.193Z,134.37
2018-12-13T20:50:14.188Z,129.70
2018-12-13T20:52:43.395Z,138.13
2018-12-13T20:55:12.609Z,132.73
2018-12-13T20:57:42.953Z,134.70
2018-12-13T21:00:12.670Z,119.07
2018-12-13T21:02:41.790Z,128.50
2018-12-13T21:05:11.033Z,131.07
2018-12-13T21:07:40.160Z,133.47
2018-12-13T21:10:11.018Z,145.40
2018-12-13T21:12:40.156Z,177.47
2018-12-13T21:15:09.812Z,186.47
2018-12-13T21:17:39.073Z,189.23
2018-12-13T21:20:08.382Z,159.07
2018-12-13T21:22:37.499Z,163.23
2018-12-13T21:25:06.676Z,163.70
2018-12-13T21:27:35.806Z,181.97
2018-12-13T21:30:05.353Z,165.07
2018-12-13T21:32:34.454Z,169.90
2018-12-13T21:35:03.598Z,182.40
2018-12-13T21:37:32.686Z,151.97
2018-12-13T21:40:01.799Z,142.20
2018-12-13T21:42:30.913Z,120.37
2018-12-13T21:45:00.000Z,121.73
2018-12-13T21:47:29.103Z,116.67
2018-12-13T21:49:58.236Z,114.90
2018-12-13T21:52:27.330Z,97.13
2018-12-13T21:54:56.434Z,95.40
2018-12-13T21:57:25.798Z,98.90
2018-12-13T21:59:54.921Z,113.57
2018-12-13T22:02:24.018Z,126.53
2018-12-13T22:04:53.160Z,109.57
2018-12-13T22:07:22.281Z,103.00
2018-12-13T22:09:51.388Z,100.53
2018-12-13T22:12:20.521Z,102.27
2018-12-13T22:14:49.682Z,122.80
2018-12-13T22:17:18.812Z,108.83
2018-12-13T22:19:47.951Z,84.47
2018-12-13T22:22:17.077Z,87.97
2018-12-13T22:24:46.206Z,82.27
2018-12-13T22:27:15.342Z,72.20
2018-12-13T22:29:44.474Z,66.37
2018-12-13T22:32:13.635Z,73.97
2018-12-13T22:34:43.045Z,67.63
2018-12-13T22:37:12.538Z,75.03
2018-12-13T22:39:41.670Z,87.00
2018-12-13T22:42:10.808Z,86.97
2018-12-13T22:44:39.932Z,116.33
2018-12-13T22:47:09.057Z,129.73
2018-12-13T22:49:38.213Z,118.80
2018-12-13T22:52:07.337Z,75.97
2018-12-13T22:54:36.473Z,76.17
2018-12-13T22:57:05.619Z,85.53
2018-12-13T22:59:34.802Z,79.40
2018-12-13T23:02:03.925Z,74.70
2018-12-13T23:04:33.083Z,74.90
2018-12-13T23:07:02.245Z,51.33
2018-12-13T23:09:31.435Z,49.20
2018-12-13T23:12:00.574Z,47.80
2018-12-13T23:14:29.749Z,41.87
2018-12-13T23:19:42.616Z,62.83
2018-12-13T23:22:11.755Z,64.73
2018-12-13T23:24:40.913Z,54.03
2018-12-13T23:27:10.048Z,37.73
2018-12-13T23:29:39.177Z,54.97
2018-12-13T23:32:08.321Z,53.07
2018-12-13T23:34:37.452Z,56.20
2018-12-13T23:37:06.609Z,64.57
2018-12-13T23:39:35.744Z,60.90
2018-12-13T23:42:04.899Z,89.60
2018-12-13T23:44:34.041Z,92.50
2018-12-13T23:47:03.185Z,110.03
2018-12-13T23:49:32.317Z,93.53
2018-12-13T23:52:01.465Z,89.13
2018-12-13T23:54:30.608Z,77.13
2018-12-13T23:56:59.753Z,56.80
2018-12-13T23:59:28.878Z,57.57
